createdAt,value
2019-05-12T00:01:09.784Z,81.00
2019-05-12T00:03:31.271Z,81.00
2019-05-12T00:05:52.913Z,80.90
2019-05-12T00:08:14.340Z,80.70
2019-05-12T00:10:35.722Z,80.70
2019-05-12T00:12:58.251Z,80.70
2019-05-12T00:15:19.802Z,80.70
2019-05-12T00:17:41.354Z,80.70
2019-05-12T00:20:04.776Z,80.80
2019-05-12T00:22:28.685Z,80.80
2019-05-12T00:24:50.425Z,80.80
2019-05-12T00:27:13.714Z,80.90
2019-05-12T00:29:37.711Z,80.80
2019-05-12T00:31:59.045Z,80.50
2019-05-12T00:34:20.837Z,80.70
2019-05-12T00:36:42.377Z,80.80
2019-05-12T00:39:07.944Z,81.20
2019-05-12T00:41:28.841Z,81.40
2019-05-12T00:43:50.408Z,81.10
2019-05-12T00:46:11.890Z,80.70
2019-05-12T00:48:33.294Z,80.70
2019-05-12T00:50:54.721Z,80.50
2019-05-12T00:53:16.108Z,80.00
2019-05-12T00:55:38.052Z,79.80
2019-05-12T00:58:00.323Z,79.90
2019-05-12T01:00:21.702Z,79.80
2019-05-12T01:02:42.993Z,79.80
2019-05-12T01:05:08.613Z,79.30
2019-05-12T01:07:30.349Z,79.00
2019-05-12T01:09:51.743Z,78.90
2019-05-12T01:12:13.524Z,79.10
2019-05-12T01:14:34.802Z,79.00
2019-05-12T01:16:57.833Z,79.10
2019-05-12T01:19:19.713Z,79.10
2019-05-12T01:21:40.975Z,79.40
2019-05-12T01:24:03.454Z,79.30
2019-05-12T01:26:25.200Z,79.20
2019-05-12T01:28:48.784Z,79.10
2019-05-12T01:31:12.021Z,79.30
2019-05-12T01:33:33.569Z,79.80
2019-05-12T01:35:54.945Z,79.80
2019-05-12T01:38:18.188Z,80.10
2019-05-12T01:40:39.911Z,80.00
2019-05-12T01:43:01.662Z,80.20
2019-05-12T01:45:23.281Z,80.30
2019-05-12T01:47:44.813Z,80.40
2019-05-12T01:50:09.098Z,80.70
2019-05-12T01:52:30.195Z,80.70
2019-05-12T01:54:51.497Z,81.20
2019-05-12T01:57:13.103Z,81.60
2019-05-12T01:59:34.384Z,82.20
2019-05-12T02:01:57.965Z,82.70
2019-05-12T02:04:19.197Z,83.00
2019-05-12T02:06:40.487Z,83.00
2019-05-12T02:09:03.714Z,82.90
2019-05-12T02:11:31.130Z,82.90
2019-05-12T02:13:52.609Z,83.30
2019-05-12T02:16:14.033Z,83.50
2019-05-12T02:18:37.760Z,83.50
2019-05-12T02:20:59.101Z,83.60
2019-05-12T02:23:20.525Z,83.40
2019-05-12T02:25:42.134Z,83.20
2019-05-12T02:28:03.738Z,83.30
2019-05-12T02:30:25.363Z,83.30
2019-05-12T02:32:52.993Z,83.00
2019-05-12T02:35:09.827Z,83.20
2019-05-12T02:37:31.155Z,83.20
2019-05-12T02:39:55.445Z,83.30
2019-05-12T02:42:15.943Z,83.30
2019-05-12T02:44:37.385Z,83.10
2019-05-12T02:46:58.931Z,83.20
2019-05-12T02:49:20.364Z,82.50
2019-05-12T02:51:44.700Z,82.50
2019-05-12T02:54:05.855Z,82.50
2019-05-12T02:56:27.653Z,81.90
2019-05-12T02:58:49.074Z,81.10
2019-05-12T03:01:10.568Z,81.00
2019-05-12T03:03:35.015Z,81.00
2019-05-12T03:05:56.562Z,81.10
2019-05-12T03:08:19.071Z,80.90
2019-05-12T03:10:44.698Z,81.00
2019-05-12T03:13:04.574Z,81.20
2019-05-12T03:15:26.564Z,81.10
2019-05-12T03:17:48.332Z,81.10
2019-05-12T03:20:09.742Z,81.20
2019-05-12T03:22:31.226Z,81.10
2019-05-12T03:25:07.749Z,81.40
2019-05-12T03:27:17.861Z,82.20
2019-05-12T03:29:38.934Z,81.70
2019-05-12T03:32:00.448Z,81.70
2019-05-12T03:34:21.765Z,82.00
2019-05-12T03:36:49.981Z,82.00
2019-05-12T03:39:07.959Z,82.10
2019-05-12T03:41:29.313Z,82.00
2019-05-12T03:43:50.809Z,82.50
2019-05-12T03:46:14.990Z,82.20
2019-05-12T03:48:35.446Z,82.30
2019-05-12T03:50:57.027Z,82.40
2019-05-12T03:53:18.313Z,82.40
2019-05-12T03:55:42.309Z,82.20
2019-05-12T03:58:04.531Z,82.00
2019-05-12T04:00:26.227Z,82.70
2019-05-12T04:02:47.643Z,82.60
2019-05-12T04:05:08.916Z,82.60
2019-05-12T04:07:30.300Z,82.60
2019-05-12T04:09:54.578Z,82.50
2019-05-12T04:12:15.112Z,83.30
2019-05-12T04:14:36.383Z,82.70
2019-05-12T04:16:57.874Z,82.90
2019-05-12T04:19:19.467Z,82.90
2019-05-12T04:21:44.349Z,83.00
2019-05-12T04:24:05.506Z,83.50
2019-05-12T04:26:27.521Z,83.60
2019-05-12T04:28:49.026Z,83.70
2019-05-12T04:31:10.526Z,83.50
2019-05-12T04:33:34.670Z,83.40
2019-05-12T04:35:55.533Z,83.70
2019-05-12T04:38:17.079Z,84.00
2019-05-12T04:40:38.454Z,84.10
2019-05-12T04:43:00.009Z,84.20
2019-05-12T04:45:21.306Z,84.60
2019-05-12T04:47:44.943Z,84.80
2019-05-12T04:50:06.401Z,85.00
2019-05-12T04:52:27.982Z,84.90
2019-05-12T04:54:49.382Z,84.60
2019-05-12T04:57:10.797Z,84.60
2019-05-12T04:59:34.498Z,84.40
2019-05-12T05:01:55.558Z,84.50
2019-05-12T05:04:17.082Z,84.00
2019-05-12T05:07:35.838Z,83.90
2019-05-12T05:09:57.863Z,83.10
2019-05-12T05:12:19.480Z,82.40
2019-05-12T05:14:41.107Z,82.00
2019-05-12T05:17:05.533Z,81.20
2019-05-12T05:19:26.537Z,81.30
2019-05-12T05:21:48.165Z,80.50
2019-05-12T05:24:09.838Z,79.20
2019-05-12T05:26:36.404Z,78.50
2019-05-12T05:28:55.390Z,78.70
2019-05-12T05:31:17.032Z,77.90
2019-05-12T05:33:38.663Z,77.90
2019-05-12T05:36:00.308Z,78.50
2019-05-12T05:38:23.689Z,77.70
2019-05-12T05:40:45.370Z,76.70
2019-05-12T05:43:18.389Z,76.20
2019-05-12T05:45:30.777Z,76.00
2019-05-12T05:47:54.289Z,75.40
2019-05-12T05:50:18.551Z,74.90
2019-05-12T05:52:39.713Z,74.40
2019-05-12T05:55:05.916Z,74.90
2019-05-12T05:57:28.289Z,74.80
2019-05-12T05:59:48.283Z,74.80
2019-05-12T06:02:09.925Z,73.90
2019-05-12T06:04:33.911Z,73.40
2019-05-12T06:06:56.041Z,73.00
2019-05-12T06:09:17.965Z,73.00
2019-05-12T06:11:39.580Z,72.90
2019-05-12T06:14:03.048Z,73.60
2019-05-12T06:16:25.263Z,72.90
2019-05-12T06:18:47.358Z,73.90
2019-05-12T06:21:09.221Z,74.30
2019-05-12T06:23:34.914Z,73.50
2019-05-12T06:25:54.904Z,72.60
2019-05-12T06:28:17.133Z,72.00
2019-05-12T06:30:44.304Z,72.10
2019-05-12T06:33:04.191Z,71.90
2019-05-12T06:35:26.013Z,72.30
2019-05-12T06:37:57.313Z,72.30
2019-05-12T06:40:11.109Z,72.40
2019-05-12T06:42:34.195Z,72.80
2019-05-12T06:44:58.163Z,73.20
2019-05-12T06:47:20.040Z,73.50
2019-05-12T06:49:43.865Z,73.60
2019-05-12T06:52:07.175Z,73.80
2019-05-12T06:54:28.610Z,73.70
2019-05-12T06:56:55.294Z,73.70
2019-05-12T06:59:19.723Z,73.70
2019-05-12T07:01:41.356Z,73.60
2019-05-12T07:04:06.455Z,73.70
2019-05-12T07:06:26.748Z,73.30
2019-05-12T07:09:01.270Z,72.10
2019-05-12T07:11:14.348Z,71.50
2019-05-12T07:13:35.993Z,71.10
2019-05-12T07:15:59.495Z,71.20
2019-05-12T07:18:24.421Z,70.60
2019-05-12T07:20:45.570Z,70.10
2019-05-12T07:23:07.223Z,70.20
2019-05-12T07:25:31.163Z,69.90
2019-05-12T07:27:58.513Z,69.60
2019-05-12T07:30:20.441Z,69.00
2019-05-12T07:32:43.405Z,68.50
2019-05-12T07:35:06.004Z,68.40
2019-05-12T07:37:29.990Z,68.40
2019-05-12T07:39:53.834Z,68.10
2019-05-12T07:42:15.534Z,68.60
2019-05-12T07:44:40.064Z,68.40
2019-05-12T07:47:03.392Z,67.70
2019-05-12T07:49:34.080Z,66.80
2019-05-12T07:51:50.131Z,67.60
2019-05-12T07:54:14.298Z,66.50
2019-05-12T07:56:36.080Z,67.20
2019-05-12T07:58:58.045Z,66.40
2019-05-12T08:01:19.669Z,67.00
2019-05-12T08:03:43.530Z,66.20
2019-05-12T08:06:04.978Z,65.40
2019-05-12T08:08:26.615Z,65.30
2019-05-12T08:10:51.523Z,66.10
2019-05-12T08:13:11.688Z,66.30
2019-05-12T08:15:34.104Z,65.90
2019-05-12T08:17:59.595Z,65.90
2019-05-12T08:20:38.944Z,66.40
2019-05-12T08:23:05.861Z,66.50
2019-05-12T08:25:28.699Z,66.60
2019-05-12T08:27:51.297Z,67.00
2019-05-12T08:30:13.814Z,67.40
2019-05-12T08:32:35.245Z,65.30
2019-05-12T08:34:56.944Z,65.20
2019-05-12T08:37:19.301Z,64.70
2019-05-12T08:39:44.261Z,65.00
2019-05-12T08:42:06.195Z,64.80
2019-05-12T08:44:33.757Z,65.00
2019-05-12T08:46:56.311Z,64.80
2019-05-12T08:49:15.887Z,65.50
2019-05-12T08:51:38.456Z,64.90
2019-05-12T08:54:07.838Z,64.40
2019-05-12T08:56:26.100Z,65.00
2019-05-12T08:58:51.075Z,65.00
2019-05-12T09:01:10.541Z,65.20
2019-05-12T09:03:33.533Z,65.50
2019-05-12T09:05:55.281Z,65.10
2019-05-12T09:08:16.977Z,65.10
2019-05-12T09:10:38.600Z,64.30
2019-05-12T09:13:00.221Z,64.00
2019-05-12T09:15:23.410Z,64.20
2019-05-12T09:17:52.504Z,63.50
2019-05-12T09:20:09.044Z,64.20
2019-05-12T09:22:30.683Z,63.00
2019-05-12T09:24:53.409Z,62.10
2019-05-12T09:27:15.430Z,61.70
2019-05-12T09:29:37.079Z,61.00
2019-05-12T09:31:59.278Z,60.00
2019-05-12T09:34:23.521Z,61.60
2019-05-12T09:36:45.296Z,60.40
2019-05-12T09:39:07.451Z,60.90
2019-05-12T09:41:35.987Z,60.70
2019-05-12T09:43:53.430Z,60.60
2019-05-12T09:46:15.392Z,60.70
2019-05-12T09:48:39.116Z,61.10
2019-05-12T09:51:05.797Z,60.60
2019-05-12T09:53:26.417Z,60.00
2019-05-12T09:55:48.091Z,59.10
2019-05-12T09:58:16.228Z,59.50
2019-05-12T10:00:35.786Z,59.90
2019-05-12T10:02:59.550Z,59.00
2019-05-12T10:05:20.647Z,57.60
2019-05-12T10:07:44.364Z,57.80
2019-05-12T10:10:06.324Z,57.50
2019-05-12T10:12:29.695Z,57.50
2019-05-12T10:14:53.427Z,56.40
2019-05-12T10:17:14.823Z,55.90
2019-05-12T10:19:36.444Z,55.00
2019-05-12T10:21:59.551Z,55.70
2019-05-12T10:24:21.631Z,53.20
2019-05-12T10:26:48.920Z,54.90
2019-05-12T10:29:16.481Z,54.20
2019-05-12T10:31:35.550Z,54.80
2019-05-12T10:33:58.217Z,54.70
2019-05-12T10:36:18.779Z,55.00
2019-05-12T10:38:40.404Z,56.00
2019-05-12T10:41:04.417Z,55.40
2019-05-12T10:43:26.122Z,52.00
2019-05-12T10:45:48.118Z,52.70
2019-05-12T10:48:09.728Z,52.20
2019-05-12T10:50:33.800Z,52.20
2019-05-12T10:52:54.730Z,50.60
2019-05-12T10:55:16.649Z,52.10
2019-05-12T10:57:38.280Z,51.80
2019-05-12T10:59:59.899Z,52.10
2019-05-12T11:02:26.413Z,51.50
2019-05-12T11:04:44.953Z,49.90
2019-05-12T11:07:06.671Z,51.50
2019-05-12T11:09:31.540Z,51.80
2019-05-12T11:11:53.927Z,50.40
2019-05-12T11:14:15.241Z,50.60
2019-05-12T11:16:36.935Z,50.70
2019-05-12T11:19:00.233Z,51.30
2019-05-12T11:21:22.009Z,51.10
2019-05-12T11:23:43.730Z,52.10
2019-05-12T11:26:05.712Z,45.80
2019-05-12T11:28:27.335Z,43.90
2019-05-12T11:30:48.995Z,46.80
2019-05-12T11:33:10.609Z,38.40
2019-05-12T11:35:33.435Z,40.60
2019-05-12T11:37:55.261Z,39.40
2019-05-12T11:40:16.940Z,38.20
2019-05-12T11:42:38.562Z,41.90
2019-05-12T11:45:20.017Z,49.00
2019-05-12T11:47:41.683Z,49.10
2019-05-12T11:50:09.742Z,50.60
2019-05-12T11:52:30.861Z,49.10
2019-05-12T11:54:53.842Z,50.10
2019-05-12T11:57:20.201Z,46.00
2019-05-12T11:59:39.003Z,49.80
2019-05-12T12:02:00.960Z,50.40
2019-05-12T12:04:24.392Z,49.10
2019-05-12T12:06:46.055Z,50.90
2019-05-12T12:09:09.309Z,50.10
2019-05-12T12:11:31.115Z,48.70
2019-05-12T12:13:53.562Z,47.90
2019-05-12T12:16:15.572Z,49.40
2019-05-12T12:18:37.535Z,50.30
2019-05-12T12:21:04.094Z,44.50
2019-05-12T12:23:23.404Z,46.80
2019-05-12T12:25:48.524Z,47.10
2019-05-12T12:28:09.328Z,43.10
2019-05-12T12:30:33.687Z,44.90
2019-05-12T12:32:57.111Z,49.30
2019-05-12T12:35:18.259Z,40.80
2019-05-12T12:37:39.882Z,40.10
2019-05-12T12:40:04.082Z,39.90
2019-05-12T12:42:30.311Z,46.50
2019-05-12T12:44:53.601Z,47.90
2019-05-12T12:47:14.127Z,41.30
2019-05-12T12:49:39.889Z,47.70
2019-05-12T12:51:59.772Z,49.30
2019-05-12T12:54:21.393Z,49.10
2019-05-12T12:56:43.090Z,48.70
2019-05-12T12:59:10.134Z,48.90
2019-05-12T13:01:30.880Z,49.10
2019-05-12T13:03:53.598Z,49.20
2019-05-12T13:06:17.345Z,48.90
2019-05-12T13:08:38.440Z,51.00
2019-05-12T13:11:00.101Z,49.50
2019-05-12T13:13:21.742Z,49.60
2019-05-12T13:15:44.372Z,49.00
2019-05-12T13:18:08.951Z,50.40
2019-05-12T13:20:29.520Z,50.80
2019-05-12T13:22:53.496Z,51.80
2019-05-12T13:25:14.583Z,51.50
2019-05-12T13:27:36.912Z,50.80
2019-05-12T13:30:01.773Z,50.00
2019-05-12T13:32:25.941Z,49.00
2019-05-12T13:34:45.542Z,49.70
2019-05-12T13:37:09.256Z,49.90
2019-05-12T13:39:30.652Z,49.70
2019-05-12T13:41:56.279Z,50.20
2019-05-12T13:44:15.799Z,49.80
2019-05-12T13:46:37.445Z,49.50
2019-05-12T13:48:59.951Z,49.60
2019-05-12T13:51:23.963Z,48.90
2019-05-12T13:53:48.983Z,48.70
2019-05-12T13:56:08.768Z,48.20
2019-05-12T13:58:34.826Z,47.80
2019-05-12T14:01:10.375Z,47.60
2019-05-12T14:03:17.313Z,47.20
2019-05-12T14:05:41.218Z,47.30
2019-05-12T14:08:03.959Z,47.20
2019-05-12T14:10:25.789Z,46.40
2019-05-12T14:12:47.854Z,46.10
2019-05-12T14:15:09.483Z,46.30
2019-05-12T14:17:36.189Z,46.90
2019-05-12T14:19:54.586Z,47.10
2019-05-12T14:22:21.176Z,47.60
2019-05-12T14:24:41.871Z,48.20
2019-05-12T14:27:04.098Z,48.40
2019-05-12T14:29:30.452Z,48.30
2019-05-12T14:31:56.053Z,48.90
2019-05-12T14:34:18.723Z,49.40
2019-05-12T14:36:37.069Z,47.60
2019-05-12T14:39:00.229Z,46.30
2019-05-12T14:41:24.857Z,46.20
2019-05-12T14:43:47.796Z,46.70
2019-05-12T14:46:10.524Z,47.50
2019-05-12T14:48:33.556Z,48.80
2019-05-12T14:50:55.532Z,49.80
2019-05-12T14:53:17.168Z,48.30
2019-05-12T14:55:38.808Z,47.70
2019-05-12T14:58:00.429Z,47.80
2019-05-12T15:00:24.150Z,47.70
2019-05-12T15:02:45.841Z,47.70
2019-05-12T15:05:10.797Z,48.20
2019-05-12T15:07:30.880Z,48.70
2019-05-12T15:09:55.682Z,48.20
2019-05-12T15:12:15.981Z,47.60
2019-05-12T15:14:38.250Z,47.50
2019-05-12T15:17:03.545Z,47.90
2019-05-12T15:19:27.818Z,48.10
2019-05-12T15:21:47.890Z,48.60
2019-05-12T15:24:15.231Z,48.00
2019-05-12T15:26:33.044Z,46.70
2019-05-12T15:28:54.684Z,45.80
2019-05-12T15:31:17.549Z,45.80
2019-05-12T15:33:39.246Z,45.80
2019-05-12T15:36:00.891Z,46.00
2019-05-12T15:38:23.905Z,46.00
2019-05-12T15:40:46.283Z,45.90
2019-05-12T15:43:09.302Z,46.20
2019-05-12T15:45:31.375Z,46.40
2019-05-12T15:47:53.568Z,47.00
2019-05-12T15:50:16.032Z,47.20
2019-05-12T15:52:42.495Z,47.30
2019-05-12T15:55:05.710Z,47.00
2019-05-12T15:57:28.991Z,46.80
2019-05-12T16:00:10.514Z,47.00
2019-05-12T16:02:33.992Z,46.60
2019-05-12T16:04:55.588Z,46.40
2019-05-12T16:07:17.257Z,45.30
2019-05-12T16:09:38.878Z,45.80
2019-05-12T16:12:10.005Z,47.20
2019-05-12T16:14:30.473Z,48.10
2019-05-12T16:16:54.723Z,48.00
2019-05-12T16:19:16.693Z,48.90
2019-05-12T16:21:38.730Z,49.80
2019-05-12T16:24:04.981Z,50.40
2019-05-12T16:26:24.224Z,50.40
2019-05-12T16:28:46.008Z,50.40
2019-05-12T16:31:08.972Z,50.70
2019-05-12T16:33:30.596Z,51.40
2019-05-12T16:35:54.509Z,51.70
2019-05-12T16:38:19.874Z,52.60
2019-05-12T16:40:44.854Z,53.00
2019-05-12T16:43:03.978Z,53.10
2019-05-12T16:45:25.806Z,52.90
2019-05-12T16:47:48.847Z,53.10
2019-05-12T16:50:15.075Z,52.70
2019-05-12T16:52:40.534Z,52.80
2019-05-12T16:54:58.448Z,53.10
2019-05-12T16:57:20.132Z,53.60
2019-05-12T16:59:42.658Z,54.00
2019-05-12T17:02:07.571Z,54.30
2019-05-12T17:04:27.770Z,54.00
2019-05-12T17:06:49.521Z,52.90
2019-05-12T17:09:13.452Z,54.00
2019-05-12T17:11:37.308Z,53.70
2019-05-12T17:14:04.029Z,54.20
2019-05-12T17:16:23.016Z,54.70
2019-05-12T17:18:44.667Z,55.10
2019-05-12T17:21:07.144Z,55.40
2019-05-12T17:23:28.776Z,55.40
2019-05-12T17:25:50.417Z,55.70
2019-05-12T17:28:13.598Z,55.60
2019-05-12T17:30:35.208Z,55.90
2019-05-12T17:33:01.412Z,56.40
2019-05-12T17:35:25.701Z,56.60
2019-05-12T17:37:43.720Z,56.90
2019-05-12T17:40:09.324Z,57.20
2019-05-12T17:42:29.784Z,57.50
2019-05-12T17:44:51.406Z,57.50
2019-05-12T17:47:21.390Z,57.60
2019-05-12T17:49:39.041Z,58.00
2019-05-12T17:52:04.276Z,58.10
2019-05-12T17:54:26.506Z,58.10
2019-05-12T17:56:47.174Z,58.50
2019-05-12T17:59:08.796Z,58.60
2019-05-12T18:01:31.533Z,58.50
2019-05-12T18:03:54.041Z,58.50
2019-05-12T18:06:20.394Z,58.90
2019-05-12T18:08:41.290Z,59.20
2019-05-12T18:11:03.760Z,59.40
2019-05-12T18:13:28.155Z,59.60
2019-05-12T18:15:49.842Z,59.90
2019-05-12T18:18:15.296Z,60.00
2019-05-12T18:20:40.100Z,61.00
2019-05-12T18:22:58.875Z,60.50
2019-05-12T18:25:29.898Z,60.50
2019-05-12T18:27:50.620Z,60.80
2019-05-12T18:30:08.016Z,61.30
2019-05-12T18:32:29.639Z,61.70
2019-05-12T18:34:53.883Z,62.00
2019-05-12T18:37:15.246Z,62.30
2019-05-12T18:39:36.909Z,62.40
2019-05-12T18:41:58.497Z,62.70
2019-05-12T18:44:26.274Z,62.90
2019-05-12T18:46:46.460Z,63.30
2019-05-12T18:49:12.269Z,63.60
2019-05-12T18:51:34.149Z,63.90
2019-05-12T18:53:57.809Z,64.40
2019-05-12T18:56:21.772Z,64.60
2019-05-12T18:58:44.495Z,65.00
2019-05-12T19:01:06.768Z,65.30
2019-05-12T19:03:28.367Z,65.50
2019-05-12T19:05:50.016Z,65.90
2019-05-12T19:08:13.839Z,66.20
2019-05-12T19:10:38.575Z,66.40
2019-05-12T19:13:01.956Z,66.60
2019-05-12T19:15:22.209Z,66.60
2019-05-12T19:17:45.887Z,66.80
2019-05-12T19:20:07.454Z,67.20
2019-05-12T19:22:29.127Z,67.30
2019-05-12T19:24:58.293Z,67.60
2019-05-12T19:27:18.979Z,67.80
2019-05-12T19:29:45.482Z,67.90
2019-05-12T19:32:01.087Z,68.20
2019-05-12T19:34:25.898Z,68.50
2019-05-12T19:36:49.350Z,68.70
2019-05-12T19:39:09.582Z,69.10
2019-05-12T19:41:36.450Z,69.20
2019-05-12T19:43:54.735Z,69.70
2019-05-12T19:46:16.358Z,70.00
2019-05-12T19:48:47.636Z,70.20
2019-05-12T19:51:15.961Z,70.50
2019-05-12T19:53:25.020Z,71.00
2019-05-12T19:55:46.748Z,71.20
2019-05-12T19:58:12.724Z,71.60
2019-05-12T20:00:33.528Z,72.00
2019-05-12T20:02:55.463Z,73.40
2019-05-12T20:05:17.762Z,73.20
2019-05-12T20:07:39.505Z,73.40
2019-05-12T20:10:01.191Z,73.80
2019-05-12T20:12:24.124Z,74.20
2019-05-12T20:14:45.968Z,74.30
2019-05-12T20:17:07.624Z,74.60
2019-05-12T20:19:29.295Z,74.90
2019-05-12T20:21:50.913Z,75.10
2019-05-12T20:24:14.333Z,75.40
2019-05-12T20:26:38.388Z,75.60
2019-05-12T20:28:59.440Z,75.80
2019-05-12T20:31:24.466Z,76.00
2019-05-12T20:33:45.439Z,76.20
2019-05-12T20:36:07.058Z,76.50
2019-05-12T20:38:33.921Z,76.30
2019-05-12T20:40:54.039Z,76.40
2019-05-12T20:43:15.563Z,77.00
2019-05-12T20:45:40.839Z,76.30
2019-05-12T20:48:00.725Z,76.10
2019-05-12T20:50:24.311Z,76.10
2019-05-12T20:52:51.257Z,75.90
2019-05-12T20:55:09.300Z,75.80
2019-05-12T20:57:30.924Z,75.90
2019-05-12T20:59:52.628Z,75.70
2019-05-12T21:02:14.263Z,75.80
2019-05-12T21:04:37.908Z,75.80
2019-05-12T21:06:59.332Z,75.80
2019-05-12T21:09:23.518Z,76.00
2019-05-12T21:11:44.399Z,77.10
2019-05-12T21:14:09.741Z,76.60
2019-05-12T21:16:34.622Z,76.90
2019-05-12T21:19:05.593Z,76.90
2019-05-12T21:21:16.403Z,77.00
2019-05-12T21:23:38.070Z,77.00
2019-05-12T21:25:59.686Z,77.10
2019-05-12T21:28:23.631Z,77.40
2019-05-12T21:30:48.094Z,77.60
2019-05-12T21:33:08.201Z,77.60
2019-05-12T21:35:39.180Z,77.70
2019-05-12T21:37:53.736Z,77.80
2019-05-12T21:40:15.608Z,78.10
2019-05-12T21:42:37.263Z,78.40
2019-05-12T21:44:58.909Z,78.60
2019-05-12T21:47:20.562Z,78.50
2019-05-12T21:49:42.609Z,78.60
2019-05-12T21:52:06.666Z,78.80
2019-05-12T21:54:29.421Z,79.10
2019-05-12T21:56:54.284Z,79.10
2019-05-12T21:59:15.884Z,79.40
2019-05-12T22:01:43.171Z,79.20
2019-05-12T22:04:02.572Z,79.20
2019-05-12T22:06:24.921Z,79.10
2019-05-12T22:08:46.950Z,79.10
2019-05-12T22:11:11.491Z,79.10
2019-05-12T22:13:32.048Z,79.10
2019-05-12T22:15:56.969Z,79.40
2019-05-12T22:18:17.493Z,79.20
2019-05-12T22:20:39.101Z,79.20
2019-05-12T22:23:06.176Z,79.20
2019-05-12T22:25:24.208Z,79.00
2019-05-12T22:27:46.239Z,78.90
2019-05-12T22:30:07.863Z,78.90
2019-05-12T22:32:29.875Z,78.80
2019-05-12T22:34:51.494Z,78.70
2019-05-12T22:37:13.571Z,78.40
2019-05-12T22:39:35.524Z,78.40
2019-05-12T22:41:57.099Z,78.50
2019-05-12T22:44:22.036Z,78.70
2019-05-12T22:46:43.590Z,78.70
2019-05-12T22:49:10.343Z,78.70
2019-05-12T22:51:29.032Z,78.80
2019-05-12T22:53:50.686Z,78.70
2019-05-12T22:56:17.523Z,78.90
2019-05-12T22:58:35.909Z,79.00
2019-05-12T23:01:01.056Z,78.90
2019-05-12T23:03:20.970Z,78.90
2019-05-12T23:05:42.951Z,79.00
2019-05-12T23:08:06.728Z,79.00
2019-05-12T23:10:27.998Z,79.10
2019-05-12T23:12:50.180Z,79.20
2019-05-12T23:15:13.647Z,79.30
2019-05-12T23:17:39.050Z,79.10
2019-05-12T23:19:58.954Z,79.10
2019-05-12T23:22:20.587Z,79.20
2019-05-12T23:24:44.127Z,78.90
2019-05-12T23:27:08.583Z,78.80
2019-05-12T23:29:31.031Z,78.90
2019-05-12T23:31:53.671Z,78.90
2019-05-12T23:34:15.479Z,78.90
2019-05-12T23:36:39.178Z,79.00
2019-05-12T23:39:01.996Z,79.20
2019-05-12T23:41:24.012Z,79.00
2019-05-12T23:43:45.648Z,79.10
2019-05-12T23:46:07.332Z,79.10
2019-05-12T23:48:28.962Z,79.30
2019-05-12T23:50:50.575Z,79.20
2019-05-12T23:53:14.062Z,79.10
2019-05-12T23:55:35.644Z,79.00
2019-05-12T23:57:57.265Z,79.10
